createdAt,value
2018-05-15T00:01:29.170Z,5.40
2018-05-15T00:03:57.388Z,8.13
2018-05-15T00:06:24.840Z,5.23
2018-05-15T00:08:52.296Z,4.97
2018-05-15T00:11:19.751Z,4.40
2018-05-15T00:13:47.212Z,4.93
2018-05-15T00:16:14.669Z,4.57
2018-05-15T00:18:42.131Z,4.80
2018-05-15T00:21:09.613Z,4.90
2018-05-15T00:23:37.833Z,5.23
2018-05-15T00:26:05.292Z,5.60
2018-05-15T00:28:32.753Z,4.70
2018-05-15T00:31:00.207Z,4.77
2018-05-15T00:33:27.671Z,5.80
2018-05-15T00:35:55.940Z,4.87
2018-05-15T00:38:23.383Z,4.73
2018-05-15T00:40:50.867Z,6.10
2018-05-15T00:43:18.316Z,8.67
2018-05-15T00:45:45.774Z,8.60
2018-05-15T00:48:13.222Z,5.50
2018-05-15T00:50:40.677Z,5.13
2018-05-15T00:53:08.901Z,5.17
2018-05-15T00:55:43.131Z,5.30
2018-05-15T00:58:11.356Z,6.97
2018-05-15T01:00:38.829Z,5.80
2018-05-15T01:03:06.290Z,5.23
2018-05-15T01:05:34.510Z,4.70
2018-05-15T01:08:02.061Z,5.17
2018-05-15T01:10:29.435Z,7.63
2018-05-15T01:12:56.880Z,4.50
2018-05-15T01:15:24.341Z,5.67
2018-05-15T01:17:51.792Z,5.70
2018-05-15T01:20:19.248Z,4.97
2018-05-15T01:22:47.464Z,5.30
2018-05-15T01:25:14.928Z,5.80
2018-05-15T01:27:42.398Z,5.17
2018-05-15T01:30:09.889Z,4.20
2018-05-15T01:32:38.130Z,5.07
2018-05-15T01:35:05.588Z,4.97
2018-05-15T01:37:33.056Z,5.53
2018-05-15T01:40:00.511Z,7.10
2018-05-15T01:42:27.993Z,6.27
2018-05-15T01:44:56.338Z,4.87
2018-05-15T01:47:23.797Z,5.20
2018-05-15T01:49:51.252Z,4.53
2018-05-15T01:52:18.712Z,5.47
2018-05-15T01:54:46.932Z,5.13
2018-05-15T01:57:15.164Z,5.27
2018-05-15T01:59:42.646Z,6.60
2018-05-15T02:02:10.896Z,7.70
2018-05-15T02:04:38.356Z,4.70
2018-05-15T02:07:06.576Z,9.00
2018-05-15T02:09:34.831Z,5.63
2018-05-15T02:12:02.290Z,5.70
2018-05-15T02:14:29.745Z,7.73
2018-05-15T02:16:57.985Z,7.40
2018-05-15T02:19:25.428Z,5.43
2018-05-15T02:21:52.912Z,4.70
2018-05-15T02:24:20.372Z,6.00
2018-05-15T02:26:47.854Z,5.33
2018-05-15T02:29:15.310Z,5.97
2018-05-15T02:31:42.782Z,5.27
2018-05-15T02:34:10.230Z,4.87
2018-05-15T02:36:38.472Z,5.03
2018-05-15T02:39:05.928Z,5.10
2018-05-15T02:41:33.400Z,4.77
2018-05-15T02:44:00.872Z,5.43
2018-05-15T02:46:28.328Z,5.57
2018-05-15T02:48:55.774Z,7.83
2018-05-15T02:51:23.232Z,4.90
2018-05-15T02:53:50.701Z,5.80
2018-05-15T02:56:18.160Z,5.23
2018-05-15T02:58:45.638Z,5.50
2018-05-15T03:01:13.102Z,4.90
2018-05-15T03:03:40.549Z,5.63
2018-05-15T03:06:08.011Z,6.37
2018-05-15T03:08:35.543Z,5.47
2018-05-15T03:11:02.925Z,5.50
2018-05-15T03:13:30.364Z,5.67
2018-05-15T03:15:58.628Z,8.20
2018-05-15T03:18:26.093Z,5.17
2018-05-15T03:20:53.549Z,7.30
2018-05-15T03:23:21.005Z,5.37
2018-05-15T03:25:48.464Z,5.47
2018-05-15T03:28:15.920Z,9.60
2018-05-15T03:30:43.380Z,5.30
2018-05-15T03:33:10.832Z,5.30
2018-05-15T03:35:38.282Z,9.73
2018-05-15T03:38:05.752Z,5.80
2018-05-15T03:40:33.972Z,4.93
2018-05-15T03:43:01.436Z,5.43
2018-05-15T03:45:28.893Z,5.63
2018-05-15T03:47:56.349Z,5.33
2018-05-15T03:50:23.807Z,5.43
2018-05-15T03:52:52.028Z,7.57
2018-05-15T03:55:19.484Z,5.50
2018-05-15T03:57:46.944Z,4.80
2018-05-15T04:00:26.274Z,7.70
2018-05-15T04:03:05.512Z,10.73
2018-05-15T04:08:38.614Z,5.60
2018-05-15T04:11:06.076Z,6.00
2018-05-15T04:13:33.403Z,5.60
2018-05-15T04:16:01.620Z,5.07
2018-05-15T04:18:29.906Z,5.50
2018-05-15T04:20:58.137Z,5.27
2018-05-15T04:23:25.605Z,5.20
2018-05-15T04:25:53.078Z,5.40
2018-05-15T04:28:20.547Z,6.00
2018-05-15T04:30:47.988Z,7.90
2018-05-15T04:33:15.448Z,5.53
2018-05-15T04:35:42.909Z,5.63
2018-05-15T04:38:11.136Z,4.87
2018-05-15T04:40:38.592Z,5.77
2018-05-15T04:43:06.052Z,5.30
2018-05-15T04:45:33.509Z,5.73
2018-05-15T04:48:00.980Z,5.83
2018-05-15T04:50:29.200Z,5.90
2018-05-15T04:52:56.655Z,7.17
2018-05-15T04:55:24.897Z,6.30
2018-05-15T04:57:52.360Z,5.30
2018-05-15T05:00:19.819Z,6.10
2018-05-15T05:02:48.092Z,5.67
2018-05-15T05:05:15.665Z,5.90
2018-05-15T05:07:43.176Z,5.17
2018-05-15T05:10:10.663Z,5.90
2018-05-15T05:12:38.108Z,6.10
2018-05-15T05:15:05.564Z,5.60
2018-05-15T05:17:33.029Z,6.20
2018-05-15T05:20:00.483Z,5.47
2018-05-15T05:22:27.974Z,5.97
2018-05-15T05:24:55.427Z,6.00
2018-05-15T05:27:22.885Z,5.43
2018-05-15T05:29:50.353Z,6.00
2018-05-15T05:32:17.800Z,6.53
2018-05-15T05:34:45.263Z,5.50
2018-05-15T05:37:12.716Z,5.50
2018-05-15T05:39:40.184Z,6.40
2018-05-15T05:42:07.628Z,6.20
2018-05-15T05:44:35.092Z,6.87
2018-05-15T05:47:02.545Z,6.00
2018-05-15T05:49:30.020Z,5.97
2018-05-15T05:51:57.539Z,5.67
2018-05-15T05:54:25.721Z,5.60
2018-05-15T05:56:53.220Z,6.03
2018-05-15T05:59:20.659Z,5.53
2018-05-15T06:01:48.116Z,5.50
2018-05-15T06:04:15.574Z,5.73
2018-05-15T06:06:43.024Z,5.60
2018-05-15T06:09:10.544Z,5.13
2018-05-15T06:11:38.008Z,5.80
2018-05-15T06:14:05.475Z,5.50
2018-05-15T06:16:32.920Z,5.43
2018-05-15T06:19:00.396Z,5.33
2018-05-15T06:21:28.605Z,5.90
2018-05-15T06:23:56.842Z,6.70
2018-05-15T06:26:24.288Z,5.20
2018-05-15T06:28:51.769Z,6.13
2018-05-15T06:31:19.215Z,5.80
2018-05-15T06:33:46.693Z,5.03
2018-05-15T06:36:14.146Z,5.13
2018-05-15T06:38:41.609Z,5.43
2018-05-15T06:41:09.060Z,5.53
2018-05-15T06:43:36.520Z,5.40
2018-05-15T06:46:03.973Z,5.80
2018-05-15T06:48:32.223Z,5.10
2018-05-15T06:50:59.651Z,5.50
2018-05-15T06:53:27.117Z,5.40
2018-05-15T06:55:54.571Z,8.50
2018-05-15T06:58:22.028Z,5.13
2018-05-15T07:00:49.504Z,5.53
2018-05-15T07:03:16.980Z,5.40
2018-05-15T07:05:44.441Z,5.50
2018-05-15T07:08:11.905Z,4.77
2018-05-15T07:10:39.367Z,5.27
2018-05-15T07:13:06.825Z,5.47
2018-05-15T07:15:34.280Z,5.17
2018-05-15T07:18:01.735Z,5.23
2018-05-15T07:20:29.223Z,5.40
2018-05-15T07:22:56.664Z,4.47
2018-05-15T07:25:24.125Z,5.63
2018-05-15T07:27:51.568Z,4.80
2018-05-15T07:30:19.025Z,5.00
2018-05-15T07:32:46.472Z,8.47
2018-05-15T07:35:13.941Z,5.37
2018-05-15T07:37:41.463Z,5.27
2018-05-15T07:40:08.937Z,4.70
2018-05-15T07:42:36.305Z,5.17
2018-05-15T07:45:03.772Z,4.90
2018-05-15T07:47:31.233Z,5.27
2018-05-15T07:49:58.691Z,4.80
2018-05-15T07:52:26.161Z,4.83
2018-05-15T07:54:53.618Z,4.47
2018-05-15T07:57:21.068Z,5.20
2018-05-15T07:59:48.528Z,5.00
2018-05-15T08:02:15.984Z,4.80
2018-05-15T08:04:43.448Z,4.93
2018-05-15T08:07:10.904Z,5.30
2018-05-15T08:09:38.359Z,4.70
2018-05-15T08:12:05.816Z,4.10
2018-05-15T08:14:34.777Z,4.50
2018-05-15T08:17:02.232Z,4.60
2018-05-15T08:19:29.704Z,4.87
2018-05-15T08:21:57.156Z,4.57
2018-05-15T08:24:24.617Z,4.10
2018-05-15T08:26:52.060Z,4.53
2018-05-15T08:29:19.532Z,4.40
2018-05-15T08:31:46.991Z,4.77
2018-05-15T08:34:15.216Z,4.63
2018-05-15T08:36:42.675Z,4.70
2018-05-15T08:39:10.918Z,4.40
2018-05-15T08:41:38.364Z,3.80
2018-05-15T08:44:05.840Z,3.97
2018-05-15T08:46:34.088Z,4.20
2018-05-15T08:49:01.533Z,3.93
2018-05-15T08:51:29.004Z,4.20
2018-05-15T08:53:56.456Z,3.83
2018-05-15T08:56:23.921Z,4.20
2018-05-15T08:58:51.405Z,3.63
2018-05-15T09:01:18.864Z,3.60
2018-05-15T09:03:46.318Z,4.03
2018-05-15T09:06:13.864Z,3.50
2018-05-15T09:08:41.320Z,3.63
2018-05-15T09:11:08.780Z,3.80
2018-05-15T09:13:36.237Z,3.70
2018-05-15T09:16:03.696Z,3.50
2018-05-15T09:18:31.144Z,3.67
2018-05-15T09:20:58.601Z,3.63
2018-05-15T09:23:26.059Z,3.70
2018-05-15T09:25:53.519Z,3.60
2018-05-15T09:28:22.489Z,3.67
2018-05-15T09:30:49.960Z,4.00
2018-05-15T09:33:17.410Z,3.27
2018-05-15T09:35:44.878Z,4.53
2018-05-15T09:38:12.335Z,3.60
2018-05-15T09:40:39.787Z,3.30
2018-05-15T09:43:08.010Z,3.57
2018-05-15T09:45:35.464Z,3.33
2018-05-15T09:48:03.679Z,3.00
2018-05-15T09:50:31.900Z,3.43
2018-05-15T09:53:00.128Z,3.40
2018-05-15T09:55:27.597Z,3.60
2018-05-15T09:57:55.799Z,3.47
2018-05-15T10:00:28.988Z,2.90
2018-05-15T10:02:56.437Z,3.07
2018-05-15T10:05:24.678Z,3.37
2018-05-15T10:07:52.192Z,3.37
2018-05-15T10:10:19.612Z,3.07
2018-05-15T10:12:47.060Z,3.10
2018-05-15T10:15:14.516Z,3.10
2018-05-15T10:17:41.989Z,3.23
2018-05-15T10:20:10.244Z,3.13
2018-05-15T10:22:37.701Z,4.53
2018-05-15T10:25:05.160Z,3.77
2018-05-15T10:27:32.604Z,4.13
2018-05-15T10:30:00.095Z,4.23
2018-05-15T10:32:27.520Z,4.07
2018-05-15T10:34:54.975Z,4.20
2018-05-15T10:37:22.519Z,4.33
2018-05-15T10:39:49.892Z,7.43
2018-05-15T10:42:17.373Z,7.53
2018-05-15T10:44:44.832Z,4.23
2018-05-15T10:47:12.317Z,6.00
2018-05-15T10:49:39.766Z,3.87
2018-05-15T10:52:07.236Z,4.40
2018-05-15T10:54:34.681Z,3.70
2018-05-15T10:57:02.908Z,3.87
2018-05-15T10:59:31.124Z,4.27
2018-05-15T11:01:58.588Z,3.37
2018-05-15T11:04:26.044Z,3.13
2018-05-15T11:06:53.499Z,5.17
2018-05-15T11:09:20.952Z,2.60
2018-05-15T11:11:48.419Z,7.30
2018-05-15T11:14:15.866Z,4.70
2018-05-15T11:16:43.332Z,6.40
2018-05-15T11:19:22.504Z,2.93
2018-05-15T11:22:02.672Z,2.83
2018-05-15T11:24:41.904Z,3.58
2018-05-15T11:27:09.390Z,4.12
2018-05-15T11:29:36.853Z,2.30
2018-05-15T11:32:05.099Z,3.20
2018-05-15T11:34:32.556Z,2.33
2018-05-15T11:37:00.020Z,2.00
2018-05-15T11:42:01.413Z,2.40
2018-05-15T11:44:28.869Z,1.75
2018-05-15T11:46:57.136Z,2.83
2018-05-15T11:49:25.607Z,2.30
2018-05-15T11:51:53.513Z,5.60
2018-05-15T11:54:20.264Z,3.00
2018-05-15T11:56:47.734Z,3.30
2018-05-15T11:59:15.189Z,4.30
2018-05-15T12:01:44.165Z,3.90
2018-05-15T12:04:12.479Z,5.20
2018-05-15T12:06:40.617Z,3.00
2018-05-15T12:09:08.169Z,3.10
2018-05-15T12:11:35.552Z,2.28
2018-05-15T12:14:03.008Z,3.95
2018-05-15T12:16:30.463Z,2.30
2018-05-15T12:18:57.937Z,2.10
2018-05-15T12:21:25.392Z,2.40
2018-05-15T12:23:53.650Z,2.35
2018-05-15T12:26:21.088Z,3.37
2018-05-15T12:28:48.552Z,2.17
2018-05-15T12:31:16.032Z,2.10
2018-05-15T12:33:43.488Z,2.20
2018-05-15T12:36:11.698Z,2.20
2018-05-15T12:38:39.178Z,2.00
2018-05-15T12:41:06.644Z,2.42
2018-05-15T12:43:34.100Z,2.05
2018-05-15T12:46:01.549Z,2.28
2018-05-15T12:48:29.039Z,1.87
2018-05-15T12:50:56.463Z,2.00
2018-05-15T12:53:23.928Z,2.22
2018-05-15T12:55:51.381Z,2.97
2018-05-15T12:58:18.832Z,3.80
2018-05-15T13:00:46.292Z,1.80
2018-05-15T13:03:13.760Z,3.92
2018-05-15T13:05:41.286Z,2.20
2018-05-15T13:08:08.669Z,2.90
2018-05-15T13:10:36.893Z,2.40
2018-05-15T13:13:05.123Z,3.55
2018-05-15T13:15:32.572Z,1.75
2018-05-15T13:18:00.041Z,2.00
2018-05-15T13:20:27.500Z,2.15
2018-05-15T13:22:54.955Z,2.15
2018-05-15T13:25:22.410Z,1.85
2018-05-15T13:27:49.876Z,1.60
2018-05-15T13:30:17.336Z,1.60
2018-05-15T13:32:44.801Z,1.73
2018-05-15T13:35:12.251Z,2.20
2018-05-15T13:37:39.712Z,2.92
2018-05-15T13:40:07.200Z,2.25
2018-05-15T13:42:34.664Z,2.40
2018-05-15T13:45:02.913Z,1.92
2018-05-15T13:47:30.348Z,2.22
2018-05-15T13:49:57.789Z,2.72
2018-05-15T13:52:25.264Z,4.17
2018-05-15T13:54:52.712Z,4.83
2018-05-15T13:57:20.931Z,2.47
2018-05-15T13:59:48.404Z,3.07
2018-05-15T14:02:16.623Z,3.13
2018-05-15T14:04:44.080Z,3.57
2018-05-15T14:07:11.536Z,4.30
2018-05-15T14:09:39.772Z,3.87
2018-05-15T14:12:07.227Z,3.20
2018-05-15T14:14:35.460Z,4.63
2018-05-15T14:17:02.907Z,4.10
2018-05-15T14:19:31.133Z,3.20
2018-05-15T14:21:59.353Z,4.20
2018-05-15T14:24:26.811Z,4.13
2018-05-15T14:26:54.269Z,3.43
2018-05-15T14:29:21.720Z,3.50
2018-05-15T14:31:49.932Z,3.40
2018-05-15T14:34:17.400Z,4.07
2018-05-15T14:36:44.869Z,4.07
2018-05-15T14:39:13.092Z,3.40
2018-05-15T14:41:52.264Z,3.70
2018-05-15T14:44:21.247Z,4.93
2018-05-15T14:46:48.701Z,7.10
2018-05-15T14:49:16.932Z,3.53
2018-05-15T14:51:44.388Z,5.90
2018-05-15T14:54:11.843Z,4.40
2018-05-15T14:56:39.289Z,6.07
2018-05-15T14:59:07.520Z,4.23
2018-05-15T15:01:34.973Z,3.87
2018-05-15T15:04:02.460Z,4.10
2018-05-15T15:06:29.908Z,4.13
2018-05-15T15:08:57.378Z,4.30
2018-05-15T15:11:24.832Z,4.90
2018-05-15T15:13:52.308Z,4.63
2018-05-15T15:16:20.540Z,5.23
2018-05-15T15:18:48.006Z,4.47
2018-05-15T15:21:15.476Z,4.30
2018-05-15T15:23:43.006Z,4.10
2018-05-15T15:26:10.423Z,4.47
2018-05-15T15:28:38.659Z,4.50
2018-05-15T15:31:06.905Z,4.60
2018-05-15T15:33:34.380Z,4.70
2018-05-15T15:36:01.843Z,5.83
2018-05-15T15:38:30.051Z,4.80
2018-05-15T15:40:57.524Z,5.33
2018-05-15T15:43:24.983Z,4.87
2018-05-15T15:45:52.441Z,4.10
2018-05-15T15:48:19.892Z,5.10
2018-05-15T15:50:47.400Z,5.93
2018-05-15T15:53:14.926Z,4.70
2018-05-15T15:55:42.438Z,4.10
2018-05-15T15:58:09.900Z,4.53
2018-05-15T16:00:38.146Z,3.87
2018-05-15T16:03:05.609Z,5.10
2018-05-15T16:05:33.093Z,7.43
2018-05-15T16:08:00.540Z,5.80
2018-05-15T16:10:28.008Z,7.33
2018-05-15T16:12:56.257Z,6.17
2018-05-15T16:15:23.718Z,5.40
2018-05-15T16:17:51.941Z,5.10
2018-05-15T16:20:20.269Z,13.20
2018-05-15T16:22:47.750Z,7.00
2018-05-15T16:25:16.009Z,11.93
2018-05-15T16:27:43.476Z,8.93
2018-05-15T16:30:10.937Z,6.23
2018-05-15T16:32:38.400Z,7.00
2018-05-15T16:35:05.886Z,11.50
2018-05-15T16:37:33.533Z,10.03
2018-05-15T16:40:00.953Z,7.43
2018-05-15T16:42:28.412Z,14.90
2018-05-15T16:44:55.865Z,7.40
2018-05-15T16:47:24.160Z,6.67
2018-05-15T16:49:51.593Z,4.97
2018-05-15T16:52:19.057Z,7.43
2018-05-15T16:54:46.535Z,6.60
2018-05-15T16:57:14.006Z,8.33
2018-05-15T16:59:41.460Z,9.80
2018-05-15T17:02:08.925Z,8.93
2018-05-15T17:04:37.208Z,7.10
2018-05-15T17:07:05.502Z,7.63
2018-05-15T17:09:33.010Z,10.07
2018-05-15T17:12:00.508Z,5.37
2018-05-15T17:14:28.800Z,6.63
2018-05-15T17:16:56.250Z,7.37
2018-05-15T17:19:23.704Z,6.63
2018-05-15T17:21:51.221Z,10.97
2018-05-15T17:24:18.702Z,7.77
2018-05-15T17:26:46.996Z,8.93
2018-05-15T17:29:14.451Z,7.53
2018-05-15T17:31:42.729Z,10.10
2018-05-15T17:34:10.223Z,6.87
2018-05-15T17:36:37.705Z,8.00
2018-05-15T17:39:05.902Z,9.70
2018-05-15T17:41:33.359Z,12.73
2018-05-15T17:44:00.876Z,9.10
2018-05-15T17:46:28.355Z,13.10
2018-05-15T17:48:55.807Z,9.97
2018-05-15T17:51:23.279Z,8.40
2018-05-15T17:53:50.764Z,8.97
2018-05-15T17:56:19.020Z,20.40
2018-05-15T17:58:46.493Z,30.43
2018-05-15T18:01:14.743Z,36.93
2018-05-15T18:03:42.212Z,19.23
2018-05-15T18:06:09.685Z,13.87
2018-05-15T18:08:37.930Z,12.80
2018-05-15T18:11:05.396Z,51.60
2018-05-15T18:13:32.890Z,35.90
2018-05-15T18:16:01.129Z,34.73
2018-05-15T18:18:28.604Z,29.07
2018-05-15T18:20:56.270Z,21.20
2018-05-15T18:23:24.497Z,20.73
2018-05-15T18:25:51.977Z,17.33
2018-05-15T18:28:20.191Z,11.97
2018-05-15T18:30:48.409Z,7.93
2018-05-15T18:33:15.956Z,10.90
2018-05-15T18:35:43.341Z,12.57
2018-05-15T18:38:10.805Z,8.50
2018-05-15T18:40:38.273Z,8.80
2018-05-15T18:43:05.941Z,9.23
2018-05-15T18:45:33.754Z,7.40
2018-05-15T18:48:01.259Z,15.33
2018-05-15T18:50:28.725Z,7.97
2018-05-15T18:52:57.056Z,11.67
2018-05-15T18:55:24.548Z,8.40
2018-05-15T18:57:52.089Z,9.00
2018-05-15T19:00:20.353Z,9.80
2018-05-15T19:02:47.813Z,8.80
2018-05-15T19:05:15.268Z,7.80
2018-05-15T19:07:42.734Z,8.37
2018-05-15T19:10:10.203Z,16.63
2018-05-15T19:12:37.741Z,16.23
2018-05-15T19:15:05.298Z,14.03
2018-05-15T19:17:32.706Z,45.57
2018-05-15T19:20:00.953Z,57.37
2018-05-15T19:22:28.486Z,70.70
2018-05-15T19:24:55.961Z,35.63
2018-05-15T19:27:23.454Z,26.47
2018-05-15T19:29:50.981Z,24.90
2018-05-15T19:32:18.470Z,26.53
2018-05-15T19:34:52.323Z,21.63
2018-05-15T19:37:20.568Z,23.53
2018-05-15T19:39:48.808Z,19.80
2018-05-15T19:42:17.059Z,22.00
2018-05-15T19:44:45.285Z,19.57
2018-05-15T19:47:12.768Z,17.23
2018-05-15T19:49:41.000Z,15.60
2018-05-15T19:52:08.476Z,17.50
2018-05-15T19:54:35.940Z,17.53
2018-05-15T19:57:04.184Z,16.27
2018-05-15T19:59:31.672Z,20.33
2018-05-15T20:01:59.159Z,15.17
2018-05-15T20:04:26.611Z,11.63
2018-05-15T20:06:54.182Z,13.00
2018-05-15T20:09:21.655Z,11.80
2018-05-15T20:11:49.132Z,14.00
2018-05-15T20:14:16.603Z,11.87
2018-05-15T20:16:44.065Z,13.10
2018-05-15T20:19:11.527Z,11.10
2018-05-15T20:21:39.787Z,13.10
2018-05-15T20:24:07.305Z,14.53
2018-05-15T20:26:34.892Z,10.33
2018-05-15T20:29:02.413Z,14.27
2018-05-15T20:31:29.837Z,13.30
2018-05-15T20:33:57.294Z,13.27
2018-05-15T20:36:26.285Z,11.20
2018-05-15T20:38:53.741Z,18.43
2018-05-15T20:41:21.208Z,10.47
2018-05-15T20:43:48.678Z,11.27
2018-05-15T20:46:16.907Z,12.17
2018-05-15T20:48:45.140Z,12.77
2018-05-15T20:51:13.365Z,9.87
2018-05-15T20:53:40.844Z,11.47
2018-05-15T20:56:08.297Z,12.73
2018-05-15T20:58:35.762Z,14.10
2018-05-15T21:01:04.078Z,10.80
2018-05-15T21:03:31.552Z,12.00
2018-05-15T21:06:04.960Z,10.13
2018-05-15T21:08:32.438Z,12.80
2018-05-15T21:10:59.916Z,11.77
2018-05-15T21:13:28.160Z,12.57
2018-05-15T21:15:55.624Z,14.33
2018-05-15T21:18:23.092Z,10.13
2018-05-15T21:20:50.539Z,13.60
2018-05-15T21:23:18.033Z,8.37
2018-05-15T21:25:46.256Z,8.70
2018-05-15T21:28:13.729Z,9.60
2018-05-15T21:30:41.187Z,9.27
2018-05-15T21:33:08.656Z,10.20
2018-05-15T21:35:36.117Z,11.10
2018-05-15T21:38:03.581Z,9.00
2018-05-15T21:40:31.028Z,8.83
2018-05-15T21:42:58.497Z,14.63
2018-05-15T21:45:25.945Z,8.63
2018-05-15T21:47:54.177Z,9.47
2018-05-15T21:50:21.640Z,9.43
2018-05-15T21:52:49.138Z,10.03
2018-05-15T21:55:16.564Z,15.17
2018-05-15T21:57:44.051Z,17.97
2018-05-15T22:00:12.086Z,9.30
2018-05-15T22:02:39.540Z,14.03
2018-05-15T22:05:06.999Z,8.90
2018-05-15T22:07:34.482Z,8.67
2018-05-15T22:10:01.998Z,9.47
2018-05-15T22:12:41.268Z,8.70
2018-05-15T22:15:20.465Z,7.67
2018-05-15T22:17:59.664Z,8.80
2018-05-15T22:20:39.054Z,7.93
2018-05-15T22:23:05.945Z,8.27
2018-05-15T22:25:34.172Z,7.93
2018-05-15T22:28:01.641Z,7.93
2018-05-15T22:30:29.092Z,12.77
2018-05-15T22:32:56.627Z,12.37
2018-05-15T22:35:24.856Z,7.80
2018-05-15T22:37:52.308Z,7.73
2018-05-15T22:40:19.818Z,8.47
2018-05-15T22:42:47.276Z,9.10
2018-05-15T22:45:14.738Z,7.67
2018-05-15T22:47:42.247Z,9.60
2018-05-15T22:50:09.701Z,7.77
2018-05-15T22:52:37.156Z,8.43
2018-05-15T22:55:04.612Z,8.10
2018-05-15T22:57:32.060Z,7.47
2018-05-15T22:59:59.528Z,6.97
2018-05-15T23:02:26.985Z,7.00
2018-05-15T23:04:54.444Z,7.53
2018-05-15T23:07:21.920Z,7.53
2018-05-15T23:09:49.380Z,8.03
2018-05-15T23:12:16.832Z,6.80
2018-05-15T23:14:45.072Z,11.47
2018-05-15T23:17:12.521Z,6.97
2018-05-15T23:19:39.992Z,7.20
2018-05-15T23:22:07.453Z,7.87
2018-05-15T23:24:34.921Z,7.20
2018-05-15T23:27:02.375Z,7.27
2018-05-15T23:29:29.927Z,6.90
2018-05-15T23:31:57.292Z,7.27
2018-05-15T23:34:24.754Z,6.87
2018-05-15T23:36:52.208Z,9.37
2018-05-15T23:39:19.661Z,7.60
2018-05-15T23:41:47.112Z,6.90
2018-05-15T23:44:14.580Z,6.70
2018-05-15T23:46:42.036Z,6.40
2018-05-15T23:49:09.484Z,6.57
2018-05-15T23:51:37.695Z,6.43
2018-05-15T23:54:05.160Z,6.70
2018-05-15T23:56:32.607Z,6.87
2018-05-15T23:59:00.065Z,7.40
